createdAt,value
2024-04-22T00:01:22.340Z,3.58
2024-04-22T00:03:49.050Z,3.10
2024-04-22T00:06:15.617Z,3.80
2024-04-22T00:08:42.201Z,2.92
2024-04-22T00:11:09.091Z,3.10
2024-04-22T00:13:36.176Z,3.05
2024-04-22T00:16:02.916Z,3.13
2024-04-22T00:18:29.532Z,3.63
2024-04-22T00:20:56.259Z,3.50
2024-04-22T00:23:22.974Z,3.70
2024-04-22T00:25:50.112Z,3.60
2024-04-22T00:28:17.074Z,3.78
2024-04-22T00:30:43.675Z,3.13
2024-04-22T00:33:11.090Z,2.90
2024-04-22T00:35:39.089Z,4.10
2024-04-22T00:38:06.263Z,3.33
2024-04-22T00:40:32.884Z,3.15
2024-04-22T00:43:02.844Z,2.75
2024-04-22T00:45:31.871Z,2.75
2024-04-22T00:47:58.613Z,2.63
2024-04-22T00:50:25.777Z,2.90
2024-04-22T00:52:53.816Z,3.78
2024-04-22T00:55:21.123Z,3.92
2024-04-22T00:57:47.810Z,3.15
2024-04-22T01:00:14.729Z,3.25
2024-04-22T01:02:43.827Z,3.17
2024-04-22T01:05:10.587Z,3.72
2024-04-22T01:07:39.223Z,3.92
2024-04-22T01:15:28.611Z,4.00
2024-04-22T01:17:55.308Z,3.17
2024-04-22T01:20:21.925Z,3.28
2024-04-22T01:22:48.671Z,3.50
2024-04-22T01:25:17.706Z,3.88
2024-04-22T01:27:44.292Z,3.42
2024-04-22T01:30:11.840Z,3.65
2024-04-22T01:32:38.490Z,4.00
2024-04-22T01:35:05.523Z,3.80
2024-04-22T01:37:32.593Z,3.97
2024-04-22T01:39:59.728Z,3.75
2024-04-22T01:42:26.535Z,3.70
2024-04-22T01:44:53.221Z,4.10
2024-04-22T01:47:19.860Z,4.50
2024-04-22T01:49:46.617Z,3.83
2024-04-22T01:52:15.139Z,3.47
2024-04-22T01:54:41.919Z,3.90
2024-04-22T01:57:08.613Z,3.63
2024-04-22T01:59:35.164Z,4.63
2024-04-22T02:02:01.731Z,3.55
2024-04-22T02:04:28.364Z,4.45
2024-04-22T02:06:54.941Z,3.42
2024-04-22T02:09:21.694Z,3.67
2024-04-22T02:11:48.323Z,3.13
2024-04-22T02:14:14.940Z,3.80
2024-04-22T02:16:41.548Z,3.45
2024-04-22T02:19:08.246Z,4.18
2024-04-22T02:21:34.870Z,3.45
2024-04-22T02:24:01.446Z,3.33
2024-04-22T02:26:28.054Z,3.40
2024-04-22T02:28:55.245Z,3.22
2024-04-22T02:31:21.934Z,3.28
2024-04-22T02:33:48.658Z,2.97
2024-04-22T02:36:15.667Z,3.90
2024-04-22T02:38:42.415Z,3.78
2024-04-22T02:41:09.055Z,3.13
2024-04-22T02:43:35.714Z,3.58
2024-04-22T02:46:02.507Z,3.63
2024-04-22T02:48:29.123Z,3.35
2024-04-22T02:50:55.783Z,3.65
2024-04-22T02:53:22.485Z,2.28
2024-04-22T02:55:49.180Z,2.58
2024-04-22T02:58:15.829Z,3.10
2024-04-22T03:00:48.261Z,3.00
2024-04-22T03:03:16.481Z,2.80
2024-04-22T03:05:43.125Z,3.42
2024-04-22T03:08:10.040Z,2.60
2024-04-22T03:10:40.428Z,3.40
2024-04-22T03:13:10.570Z,3.35
2024-04-22T03:15:37.786Z,3.47
2024-04-22T03:18:05.089Z,3.00
2024-04-22T03:20:32.189Z,3.40
2024-04-22T03:22:58.791Z,3.40
2024-04-22T03:25:25.401Z,3.30
2024-04-22T03:27:52.125Z,3.38
2024-04-22T03:30:18.901Z,3.08
2024-04-22T03:32:45.566Z,3.17
2024-04-22T03:35:12.243Z,3.78
2024-04-22T03:37:39.049Z,3.65
2024-04-22T03:40:06.439Z,3.60
2024-04-22T03:42:33.058Z,3.20
2024-04-22T03:44:59.624Z,3.67
2024-04-22T03:47:45.273Z,3.20
2024-04-22T03:50:11.890Z,3.22
2024-04-22T03:52:38.540Z,3.58
2024-04-22T03:55:05.185Z,2.65
2024-04-22T03:57:31.777Z,3.50
2024-04-22T03:59:58.358Z,3.00
2024-04-22T04:02:24.944Z,3.22
2024-04-22T04:04:51.858Z,3.45
2024-04-22T04:07:18.558Z,4.03
2024-04-22T04:09:45.171Z,2.85
2024-04-22T04:12:11.775Z,3.72
2024-04-22T04:14:39.458Z,3.00
2024-04-22T04:17:06.187Z,3.22
2024-04-22T04:19:32.968Z,3.28
2024-04-22T04:21:59.545Z,3.55
2024-04-22T04:24:26.162Z,3.42
2024-04-22T04:26:53.643Z,3.55
2024-04-22T04:29:20.255Z,3.33
2024-04-22T04:31:47.021Z,3.97
2024-04-22T04:34:15.350Z,3.47
2024-04-22T04:36:42.414Z,3.80
2024-04-22T04:39:09.159Z,3.95
2024-04-22T04:41:35.716Z,3.63
2024-04-22T04:44:02.304Z,3.05
2024-04-22T04:46:28.926Z,2.97
2024-04-22T04:48:55.501Z,3.15
2024-04-22T04:51:22.033Z,3.47
2024-04-22T04:53:49.397Z,3.35
2024-04-22T04:56:16.790Z,2.63
2024-04-22T04:58:43.489Z,3.05
2024-04-22T05:01:10.238Z,2.72
2024-04-22T05:03:36.894Z,3.10
2024-04-22T05:06:03.762Z,2.08
2024-04-22T05:08:30.540Z,4.32
2024-04-22T05:10:59.932Z,3.13
2024-04-22T05:13:26.593Z,3.65
2024-04-22T05:15:53.248Z,3.45
2024-04-22T05:18:19.841Z,3.75
2024-04-22T05:20:46.426Z,3.13
2024-04-22T05:23:13.120Z,4.07
2024-04-22T05:25:39.707Z,3.88
2024-04-22T05:28:07.107Z,4.03
2024-04-22T05:30:33.662Z,3.80
2024-04-22T05:33:07.006Z,3.83
2024-04-22T05:35:52.551Z,4.07
2024-04-22T05:38:19.113Z,3.97
2024-04-22T05:40:45.773Z,3.78
2024-04-22T05:43:12.428Z,4.22
2024-04-22T05:45:38.964Z,3.75
2024-04-22T05:48:05.952Z,3.80
2024-04-22T05:50:32.633Z,3.80
2024-04-22T05:52:59.208Z,3.50
2024-04-22T05:55:25.796Z,4.30
2024-04-22T05:57:52.357Z,3.63
2024-04-22T06:00:18.925Z,4.38
2024-04-22T06:02:45.909Z,3.50
2024-04-22T06:05:12.560Z,3.70
2024-04-22T06:07:39.268Z,4.40
2024-04-22T06:10:06.398Z,4.20
2024-04-22T06:12:32.987Z,3.30
2024-04-22T06:14:59.592Z,3.92
2024-04-22T06:17:26.258Z,4.35
2024-04-22T06:19:52.959Z,3.70
2024-04-22T06:22:19.582Z,3.40
2024-04-22T06:24:46.225Z,4.10
2024-04-22T06:27:12.784Z,4.30
2024-04-22T06:29:39.356Z,4.03
2024-04-22T06:32:06.609Z,4.13
2024-04-22T06:34:33.351Z,3.90
2024-04-22T06:36:59.985Z,3.25
2024-04-22T06:39:27.517Z,4.22
2024-04-22T06:41:54.191Z,4.38
2024-04-22T06:44:20.787Z,3.50
2024-04-22T06:46:47.423Z,3.60
2024-04-22T06:49:14.054Z,4.30
2024-04-22T06:51:40.639Z,3.80
2024-04-22T06:54:07.197Z,3.55
2024-04-22T06:56:35.494Z,4.75
2024-04-22T06:59:02.071Z,3.65
2024-04-22T07:01:35.480Z,4.30
2024-04-22T07:04:06.874Z,5.35
2024-04-22T07:06:33.656Z,4.55
2024-04-22T07:09:02.950Z,4.28
2024-04-22T07:11:29.693Z,4.53
2024-04-22T07:13:56.282Z,4.43
2024-04-22T07:16:22.937Z,5.40
2024-04-22T07:18:52.762Z,4.57
2024-04-22T07:21:20.667Z,4.05
2024-04-22T07:23:47.234Z,4.03
2024-04-22T07:26:13.839Z,5.65
2024-04-22T07:28:40.703Z,5.97
2024-04-22T07:31:07.638Z,4.50
2024-04-22T07:33:34.723Z,4.30
2024-04-22T07:36:33.014Z,4.45
2024-04-22T07:39:02.223Z,4.03
2024-04-22T07:41:29.522Z,4.28
2024-04-22T07:43:56.228Z,4.60
2024-04-22T07:46:23.861Z,4.32
2024-04-22T07:48:50.932Z,4.40
2024-04-22T07:51:17.619Z,4.65
2024-04-22T07:53:44.444Z,4.10
2024-04-22T07:56:15.808Z,4.75
2024-04-22T07:58:46.253Z,4.18
2024-04-22T08:01:14.107Z,4.20
2024-04-22T08:03:41.537Z,4.53
2024-04-22T08:06:14.058Z,4.15
2024-04-22T08:08:41.030Z,4.35
2024-04-22T08:11:07.765Z,4.40
2024-04-22T08:13:34.731Z,3.95
2024-04-22T08:16:01.362Z,4.57
2024-04-22T08:18:28.068Z,3.88
2024-04-22T08:20:54.738Z,5.40
2024-04-22T08:23:25.360Z,3.97
2024-04-22T08:28:18.654Z,4.20
2024-04-22T08:30:45.313Z,4.45
2024-04-22T08:33:12.131Z,4.35
2024-04-22T08:35:48.327Z,5.25
2024-04-22T08:38:14.903Z,4.57
2024-04-22T08:40:45.572Z,4.07
2024-04-22T08:45:46.105Z,4.43
2024-04-22T08:48:13.215Z,4.82
2024-04-22T08:50:41.719Z,4.72
2024-04-22T08:53:12.450Z,5.07
2024-04-22T08:58:08.348Z,4.20
2024-04-22T09:00:35.036Z,5.82
2024-04-22T09:03:02.081Z,4.80
2024-04-22T09:05:29.928Z,4.50
2024-04-22T09:08:05.200Z,4.28
2024-04-22T09:11:05.518Z,4.15
2024-04-22T09:13:20.647Z,5.43
2024-04-22T09:15:54.989Z,5.50
2024-04-22T09:18:23.813Z,4.75
2024-04-22T09:20:50.512Z,4.07
2024-04-22T09:23:19.854Z,5.35
2024-04-22T09:25:46.993Z,5.90
2024-04-22T09:28:18.175Z,4.47
2024-04-22T09:30:51.612Z,6.25
2024-04-22T09:33:24.659Z,4.47
2024-04-22T09:35:55.511Z,4.15
2024-04-22T09:38:34.901Z,3.50
2024-04-22T09:41:11.474Z,4.53
2024-04-22T09:43:40.770Z,3.75
2024-04-22T09:46:08.302Z,4.60
2024-04-22T09:48:36.326Z,4.30
2024-04-22T09:51:04.012Z,5.97
2024-04-22T09:53:31.778Z,6.05
2024-04-22T09:56:09.275Z,4.53
2024-04-22T09:58:38.457Z,4.07
2024-04-22T10:01:05.946Z,3.83
2024-04-22T10:03:33.229Z,3.92
2024-04-22T10:06:04.723Z,4.60
2024-04-22T10:08:33.401Z,4.15
2024-04-22T10:11:12.519Z,4.20
2024-04-22T10:13:39.611Z,4.13
2024-04-22T10:16:06.929Z,4.18
2024-04-22T10:18:34.169Z,4.15
2024-04-22T10:21:03.430Z,4.13
2024-04-22T10:23:30.693Z,4.00
2024-04-22T10:25:57.893Z,4.32
2024-04-22T10:28:24.626Z,4.30
2024-04-22T10:30:51.379Z,4.00
2024-04-22T10:33:18.076Z,4.40
2024-04-22T10:35:44.724Z,3.75
2024-04-22T10:38:11.306Z,3.20
2024-04-22T10:40:38.019Z,3.92
2024-04-22T10:43:05.118Z,3.38
2024-04-22T10:45:31.677Z,3.00
2024-04-22T10:48:08.455Z,2.97
2024-04-22T10:50:44.753Z,2.33
2024-04-22T10:53:11.517Z,2.75
2024-04-22T10:55:38.480Z,2.90
2024-04-22T10:58:05.638Z,3.35
2024-04-22T11:00:33.484Z,2.88
2024-04-22T11:03:00.959Z,3.15
2024-04-22T11:05:29.082Z,3.83
2024-04-22T11:07:59.705Z,2.78
2024-04-22T11:10:35.000Z,3.05
2024-04-22T11:13:08.326Z,3.28
2024-04-22T11:15:36.977Z,2.50
2024-04-22T11:18:09.849Z,2.65
2024-04-22T11:20:37.751Z,2.85
2024-04-22T11:23:05.548Z,2.60
2024-04-22T11:25:32.496Z,1.83
2024-04-22T11:27:59.170Z,2.85
2024-04-22T11:30:26.557Z,2.30
2024-04-22T11:32:53.234Z,2.88
2024-04-22T11:35:20.605Z,2.50
2024-04-22T11:37:47.758Z,2.13
2024-04-22T11:40:14.446Z,1.90
2024-04-22T11:42:41.122Z,1.83
2024-04-22T11:45:08.048Z,2.85
2024-04-22T11:47:35.028Z,2.55
2024-04-22T11:50:01.906Z,2.30
2024-04-22T11:52:28.709Z,2.42
2024-04-22T11:54:55.360Z,2.70
2024-04-22T11:57:21.986Z,2.80
2024-04-22T11:59:48.611Z,2.28
2024-04-22T12:02:18.295Z,2.42
2024-04-22T12:04:48.574Z,2.38
2024-04-22T12:07:15.435Z,2.70
2024-04-22T12:09:42.085Z,2.22
2024-04-22T12:12:09.060Z,2.70
2024-04-22T12:14:36.192Z,2.65
2024-04-22T12:17:05.771Z,2.85
2024-04-22T12:19:32.564Z,2.78
2024-04-22T12:21:59.236Z,2.17
2024-04-22T12:24:25.809Z,2.42
2024-04-22T12:26:52.373Z,2.47
2024-04-22T12:29:19.053Z,2.63
2024-04-22T12:31:45.779Z,2.72
2024-04-22T12:34:13.867Z,2.55
2024-04-22T12:36:41.879Z,2.42
2024-04-22T12:39:08.833Z,2.22
2024-04-22T12:41:36.453Z,2.30
2024-04-22T12:44:04.416Z,2.67
2024-04-22T12:46:52.334Z,2.70
2024-04-22T12:49:37.628Z,2.28
2024-04-22T12:52:04.440Z,2.45
2024-04-22T12:54:31.019Z,2.30
2024-04-22T12:56:57.583Z,2.72
2024-04-22T12:59:24.224Z,2.35
2024-04-22T13:01:50.923Z,2.40
2024-04-22T13:04:17.646Z,1.90
2024-04-22T13:06:44.295Z,3.10
2024-04-22T13:09:13.333Z,2.70
2024-04-22T13:11:41.160Z,2.53
2024-04-22T13:14:07.798Z,2.50
2024-04-22T13:16:34.374Z,2.67
2024-04-22T13:19:03.083Z,2.30
2024-04-22T13:21:30.877Z,2.20
2024-04-22T13:23:57.576Z,2.40
2024-04-22T13:26:24.124Z,2.30
2024-04-22T13:28:50.729Z,2.30
2024-04-22T13:31:17.491Z,2.08
2024-04-22T13:33:44.179Z,2.20
2024-04-22T13:36:10.857Z,2.03
2024-04-22T13:38:38.015Z,2.10
2024-04-22T13:41:04.927Z,2.55
2024-04-22T13:43:31.550Z,1.90
2024-04-22T13:45:58.190Z,1.80
2024-04-22T13:48:24.907Z,1.77
2024-04-22T13:50:51.675Z,1.92
2024-04-22T13:53:26.133Z,1.85
2024-04-22T13:55:59.316Z,1.67
2024-04-22T13:58:26.699Z,1.98
2024-04-22T14:00:53.486Z,2.05
2024-04-22T14:03:20.192Z,2.00
2024-04-22T14:05:46.823Z,1.42
2024-04-22T14:08:13.572Z,1.90
2024-04-22T14:10:40.305Z,1.88
2024-04-22T14:13:07.068Z,1.77
2024-04-22T14:15:44.670Z,1.98
2024-04-22T14:18:14.583Z,2.10
2024-04-22T14:20:41.354Z,1.63
2024-04-22T14:23:08.165Z,2.10
2024-04-22T14:25:35.688Z,1.88
2024-04-22T14:28:02.494Z,1.90
2024-04-22T14:30:29.114Z,2.00
2024-04-22T14:32:55.837Z,1.48
2024-04-22T14:35:22.541Z,1.52
2024-04-22T14:37:49.264Z,1.58
2024-04-22T14:40:16.067Z,1.98
2024-04-22T14:42:42.674Z,1.80
2024-04-22T14:45:09.342Z,1.80
2024-04-22T14:47:36.077Z,1.60
2024-04-22T14:50:02.781Z,2.35
2024-04-22T14:52:29.631Z,1.85
2024-04-22T14:54:56.282Z,2.20
2024-04-22T14:57:22.983Z,2.13
2024-04-22T14:59:49.594Z,1.75
2024-04-22T15:02:17.667Z,1.52
2024-04-22T15:04:44.432Z,1.80
2024-04-22T15:07:11.152Z,1.90
2024-04-22T15:09:43.045Z,1.80
2024-04-22T15:12:10.195Z,2.10
2024-04-22T15:14:36.883Z,1.80
2024-04-22T15:17:03.689Z,1.83
2024-04-22T15:19:30.436Z,1.67
2024-04-22T15:21:57.671Z,1.80
2024-04-22T15:24:24.431Z,2.00
2024-04-22T15:26:51.120Z,2.17
2024-04-22T15:29:17.853Z,1.70
2024-04-22T15:31:44.526Z,1.73
2024-04-22T15:34:11.232Z,1.70
2024-04-22T15:36:37.886Z,2.05
2024-04-22T15:39:08.020Z,1.75
2024-04-22T15:41:35.447Z,2.00
2024-04-22T15:44:03.498Z,1.83
2024-04-22T15:46:30.924Z,1.88
2024-04-22T15:48:57.657Z,1.83
2024-04-22T15:51:24.944Z,1.65
2024-04-22T15:53:51.940Z,1.70
2024-04-22T15:56:18.978Z,1.60
2024-04-22T15:58:45.669Z,1.77
2024-04-22T16:01:12.380Z,1.40
2024-04-22T16:03:39.098Z,3.53
2024-04-22T16:06:06.499Z,1.90
2024-04-22T16:08:33.249Z,1.75
2024-04-22T16:11:00.220Z,3.53
2024-04-22T16:13:26.861Z,2.40
2024-04-22T16:15:53.564Z,1.98
2024-04-22T16:18:20.271Z,2.10
2024-04-22T16:20:56.516Z,1.80
2024-04-22T16:23:32.600Z,1.58
2024-04-22T16:26:00.339Z,1.73
2024-04-22T16:28:27.146Z,1.60
2024-04-22T16:30:53.926Z,2.13
2024-04-22T16:33:20.551Z,2.03
2024-04-22T16:35:47.160Z,1.88
2024-04-22T16:38:13.732Z,1.70
2024-04-22T16:40:40.340Z,1.80
2024-04-22T16:43:08.863Z,2.15
2024-04-22T16:45:35.449Z,2.22
2024-04-22T16:48:02.125Z,1.98
2024-04-22T16:50:28.859Z,2.85
2024-04-22T16:52:55.557Z,1.92
2024-04-22T16:55:22.192Z,2.15
2024-04-22T16:57:48.942Z,1.92
2024-04-22T17:00:15.826Z,2.00
2024-04-22T17:02:42.519Z,1.60
2024-04-22T17:05:09.258Z,1.75
2024-04-22T17:07:36.378Z,1.85
2024-04-22T17:10:06.943Z,1.88
2024-04-22T17:15:00.903Z,2.10
2024-04-22T17:17:27.807Z,1.80
2024-04-22T17:19:54.608Z,2.05
2024-04-22T17:22:21.290Z,2.17
2024-04-22T17:24:50.953Z,2.10
2024-04-22T17:27:21.453Z,2.20
2024-04-22T17:29:48.413Z,2.42
2024-04-22T17:32:15.604Z,2.20
2024-04-22T17:34:42.358Z,2.17
2024-04-22T17:37:10.397Z,2.88
2024-04-22T17:39:38.407Z,2.40
2024-04-22T17:42:06.012Z,2.42
2024-04-22T17:44:32.598Z,2.10
2024-04-22T17:46:59.797Z,2.42
2024-04-22T17:49:26.610Z,2.60
2024-04-22T17:51:53.233Z,2.53
2024-04-22T17:54:19.839Z,2.58
2024-04-22T17:56:52.880Z,2.65
2024-04-22T17:59:23.147Z,2.38
2024-04-22T18:01:49.814Z,2.67
2024-04-22T18:04:16.584Z,3.10
2024-04-22T18:06:43.251Z,2.50
2024-04-22T18:09:10.759Z,3.10
2024-04-22T18:11:37.436Z,2.65
2024-04-22T18:14:04.268Z,3.30
2024-04-22T18:16:30.904Z,3.00
2024-04-22T18:18:57.515Z,2.85
2024-04-22T18:21:26.055Z,2.45
2024-04-22T18:23:53.860Z,2.80
2024-04-22T18:26:20.766Z,2.58
2024-04-22T18:28:47.668Z,2.63
2024-04-22T18:31:16.040Z,2.65
2024-04-22T18:33:44.488Z,2.72
2024-04-22T18:36:11.169Z,3.00
2024-04-22T18:38:37.973Z,2.65
2024-04-22T18:41:07.048Z,3.80
2024-04-22T18:43:34.995Z,2.55
2024-04-22T18:46:01.623Z,2.38
2024-04-22T18:48:29.917Z,3.08
2024-04-22T18:50:58.771Z,2.78
2024-04-22T18:53:25.443Z,2.63
2024-04-22T18:55:52.237Z,2.63
2024-04-22T18:58:18.978Z,2.63
2024-04-22T19:00:45.628Z,2.55
2024-04-22T19:03:12.323Z,2.80
2024-04-22T19:05:38.976Z,2.72
2024-04-22T19:08:05.825Z,2.80
2024-04-22T19:10:32.611Z,3.20
2024-04-22T19:12:59.237Z,2.53
2024-04-22T19:15:25.821Z,3.05
2024-04-22T19:17:52.603Z,2.47
2024-04-22T19:20:19.418Z,2.83
2024-04-22T19:22:46.046Z,2.78
2024-04-22T19:25:13.575Z,3.03
2024-04-22T19:27:40.192Z,2.20
2024-04-22T19:30:07.209Z,2.45
2024-04-22T19:32:34.362Z,2.42
2024-04-22T19:35:01.078Z,3.10
2024-04-22T19:37:27.733Z,3.22
2024-04-22T19:39:54.374Z,3.00
2024-04-22T19:42:20.959Z,2.85
2024-04-22T19:44:47.552Z,2.65
2024-04-22T19:47:14.289Z,2.28
2024-04-22T19:49:40.884Z,2.88
2024-04-22T19:52:08.122Z,2.45
2024-04-22T19:54:34.875Z,2.47
2024-04-22T19:57:01.490Z,2.83
2024-04-22T19:59:28.398Z,2.97
2024-04-22T20:01:55.073Z,2.60
2024-04-22T20:04:21.945Z,2.80
2024-04-22T20:06:48.698Z,3.20
2024-04-22T20:09:15.336Z,2.10
2024-04-22T20:11:42.010Z,3.10
2024-04-22T20:14:08.673Z,2.70
2024-04-22T20:16:53.714Z,3.30
2024-04-22T20:19:22.922Z,3.65
2024-04-22T20:21:49.651Z,3.30
2024-04-22T20:24:16.663Z,2.60
2024-04-22T20:26:44.082Z,3.35
2024-04-22T20:29:10.784Z,3.28
2024-04-22T20:31:37.461Z,2.95
2024-04-22T20:34:04.480Z,3.15
2024-04-22T20:36:31.214Z,3.45
2024-04-22T20:38:57.893Z,2.92
2024-04-22T20:41:24.527Z,3.45
2024-04-22T20:43:55.175Z,2.35
2024-04-22T20:46:22.054Z,3.53
2024-04-22T20:48:48.716Z,3.30
2024-04-22T20:51:15.303Z,3.17
2024-04-22T20:53:41.853Z,3.15
2024-04-22T20:56:08.547Z,3.20
2024-04-22T20:58:36.063Z,3.13
2024-04-22T21:01:04.934Z,2.88
2024-04-22T21:03:31.997Z,3.92
2024-04-22T21:06:00.409Z,3.15
2024-04-22T21:08:27.909Z,3.03
2024-04-22T21:10:55.918Z,3.63
2024-04-22T21:13:22.670Z,4.05
2024-04-22T21:15:49.332Z,3.67
2024-04-22T21:18:18.948Z,3.67
2024-04-22T21:20:49.763Z,3.55
2024-04-22T21:23:16.698Z,3.10
2024-04-22T21:25:43.638Z,3.20
2024-04-22T21:28:10.358Z,3.80
2024-04-22T21:30:36.992Z,3.80
2024-04-22T21:33:18.360Z,3.50
2024-04-22T21:35:50.384Z,3.55
2024-04-22T21:38:17.506Z,3.88
2024-04-22T21:40:44.738Z,2.60
2024-04-22T21:43:11.637Z,3.38
2024-04-22T21:45:38.435Z,3.83
2024-04-22T21:48:05.539Z,3.45
2024-04-22T21:50:32.196Z,4.03
2024-04-22T21:52:58.908Z,3.78
2024-04-22T21:55:43.486Z,3.60
2024-04-22T21:58:50.791Z,4.00
2024-04-22T22:01:56.154Z,3.78
2024-04-22T22:05:00.245Z,3.90
2024-04-22T22:07:27.778Z,3.85
2024-04-22T22:09:55.270Z,3.55
2024-04-22T22:12:24.236Z,3.78
2024-04-22T22:14:51.793Z,3.92
2024-04-22T22:17:18.806Z,3.25
2024-04-22T22:19:47.151Z,3.80
2024-04-22T22:22:14.744Z,3.95
2024-04-22T22:24:45.661Z,3.95
2024-04-22T22:27:16.286Z,3.97
2024-04-22T22:32:10.192Z,4.03
2024-04-22T22:34:37.235Z,4.15
2024-04-22T22:37:08.096Z,3.80
2024-04-22T22:39:35.012Z,3.78
2024-04-22T22:42:02.123Z,3.88
2024-04-22T22:44:28.729Z,3.63
2024-04-22T22:47:03.160Z,3.40
2024-04-22T22:49:29.960Z,4.10
2024-04-22T22:51:56.859Z,4.38
2024-04-22T22:54:23.466Z,3.80
2024-04-22T22:57:00.365Z,3.58
2024-04-22T22:59:29.715Z,4.30
2024-04-22T23:01:58.127Z,3.92
2024-04-22T23:04:25.058Z,4.05
2024-04-22T23:06:51.798Z,3.90
2024-04-22T23:09:18.494Z,3.38
2024-04-22T23:11:45.142Z,3.47
2024-04-22T23:14:11.752Z,3.15
2024-04-22T23:16:38.389Z,4.47
2024-04-22T23:19:05.011Z,3.55
2024-04-22T23:21:31.581Z,4.10
2024-04-22T23:23:58.207Z,4.13
2024-04-22T23:26:24.791Z,4.40
2024-04-22T23:28:52.448Z,3.72
2024-04-22T23:31:19.189Z,3.75
2024-04-22T23:33:45.920Z,3.90
2024-04-22T23:36:12.521Z,4.07
2024-04-22T23:38:39.168Z,3.80
2024-04-22T23:41:05.796Z,4.18
2024-04-22T23:43:32.419Z,4.07
2024-04-22T23:45:59.003Z,4.15
2024-04-22T23:48:25.657Z,3.88
2024-04-22T23:50:52.237Z,3.97
2024-04-22T23:53:20.769Z,4.30
2024-04-22T23:55:47.487Z,4.38
2024-04-22T23:58:14.092Z,3.95
